sensor_id;sensor_type;location;lat;lon;timestamp;temperature;humidity
75217;HTU21D;63800;51.972;5.682;2023-02-03T00:01:28;8.35;96.07
75217;HTU21D;63800;51.972;5.682;2023-02-03T00:03:53;8.31;95.99
75217;HTU21D;63800;51.972;5.682;2023-02-03T00:06:19;8.35;96.02
75217;HTU21D;63800;51.972;5.682;2023-02-03T00:08:44;8.30;96.04
75217;HTU21D;63800;51.972;5.682;2023-02-03T00:11:10;8.30;96.01
75217;HTU21D;63800;51.972;5.682;2023-02-03T00:13:36;8.33;96.03
75217;HTU21D;63800;51.972;5.682;2023-02-03T00:16:01;8.31;95.71
75217;HTU21D;63800;51.972;5.682;2023-02-03T00:18:27;8.32;95.75
75217;HTU21D;63800;51.972;5.682;2023-02-03T00:20:52;8.23;96.36
75217;HTU21D;63800;51.972;5.682;2023-02-03T00:23:18;8.34;95.84
75217;HTU21D;63800;51.972;5.682;2023-02-03T00:25:44;8.34;95.82
75217;HTU21D;63800;51.972;5.682;2023-02-03T00:28:09;8.29;95.88
75217;HTU21D;63800;51.972;5.682;2023-02-03T00:30:35;8.32;95.65
75217;HTU21D;63800;51.972;5.682;2023-02-03T00:33:01;8.36;95.81
75217;HTU21D;63800;51.972;5.682;2023-02-03T00:35:27;8.30;95.73
75217;HTU21D;63800;51.972;5.682;2023-02-03T00:37:56;8.33;95.46
75217;HTU21D;63800;51.972;5.682;2023-02-03T00:40:24;8.34;95.30
75217;HTU21D;63800;51.972;5.682;2023-02-03T00:42:50;8.34;95.65
75217;HTU21D;63800;51.972;5.682;2023-02-03T00:45:16;8.32;95.72
75217;HTU21D;63800;51.972;5.682;2023-02-03T00:47:41;8.33;95.64
75217;HTU21D;63800;51.972;5.682;2023-02-03T00:50:08;8.33;95.15
75217;HTU21D;63800;51.972;5.682;2023-02-03T00:52:34;8.33;95.54
75217;HTU21D;63800;51.972;5.682;2023-02-03T00:54:59;8.43;94.98
75217;HTU21D;63800;51.972;5.682;2023-02-03T00:57:25;8.31;94.80
75217;HTU21D;63800;51.972;5.682;2023-02-03T00:59:50;8.37;94.88
75217;HTU21D;63800;51.972;5.682;2023-02-03T01:02:16;8.43;94.32
75217;HTU21D;63800;51.972;5.682;2023-02-03T01:04:42;8.39;94.40
75217;HTU21D;63800;51.972;5.682;2023-02-03T01:07:08;8.36;94.65
75217;HTU21D;63800;51.972;5.682;2023-02-03T01:09:35;8.48;94.07
75217;HTU21D;63800;51.972;5.682;2023-02-03T01:12:00;8.37;94.63
75217;HTU21D;63800;51.972;5.682;2023-02-03T01:14:26;8.34;94.94
75217;HTU21D;63800;51.972;5.682;2023-02-03T01:16:51;8.38;94.45
75217;HTU21D;63800;51.972;5.682;2023-02-03T01:19:17;8.44;93.97
75217;HTU21D;63800;51.972;5.682;2023-02-03T01:21:43;8.42;94.24
75217;HTU21D;63800;51.972;5.682;2023-02-03T01:24:09;8.50;94.04
75217;HTU21D;63800;51.972;5.682;2023-02-03T01:26:35;8.44;94.33
75217;HTU21D;63800;51.972;5.682;2023-02-03T01:29:01;8.37;94.52
75217;HTU21D;63800;51.972;5.682;2023-02-03T01:31:35;8.42;94.26
75217;HTU21D;63800;51.972;5.682;2023-02-03T01:34:01;8.38;94.30
75217;HTU21D;63800;51.972;5.682;2023-02-03T01:36:29;8.41;94.10
75217;HTU21D;63800;51.972;5.682;2023-02-03T01:38:55;8.36;94.39
75217;HTU21D;63800;51.972;5.682;2023-02-03T01:41:24;8.42;94.37
75217;HTU21D;63800;51.972;5.682;2023-02-03T01:43:52;8.42;94.12
75217;HTU21D;63800;51.972;5.682;2023-02-03T01:46:45;8.35;94.43
75217;HTU21D;63800;51.972;5.682;2023-02-03T01:49:25;8.39;94.11
75217;HTU21D;63800;51.972;5.682;2023-02-03T01:51:52;8.37;94.38
75217;HTU21D;63800;51.972;5.682;2023-02-03T01:54:24;8.38;94.32
75217;HTU21D;63800;51.972;5.682;2023-02-03T01:59:58;8.27;94.88
75217;HTU21D;63800;51.972;5.682;2023-02-03T02:02:24;8.34;94.77
75217;HTU21D;63800;51.972;5.682;2023-02-03T02:04:58;8.34;94.75
75217;HTU21D;63800;51.972;5.682;2023-02-03T02:07:26;8.43;94.33
75217;HTU21D;63800;51.972;5.682;2023-02-03T02:09:53;8.36;94.49
75217;HTU21D;63800;51.972;5.682;2023-02-03T02:12:19;8.36;94.28
75217;HTU21D;63800;51.972;5.682;2023-02-03T02:14:45;8.43;93.90
75217;HTU21D;63800;51.972;5.682;2023-02-03T02:28:45;8.35;93.10
75217;HTU21D;63800;51.972;5.682;2023-02-03T02:42:27;8.42;91.87
75217;HTU21D;63800;51.972;5.682;2023-02-03T02:45:14;8.44;91.47
75217;HTU21D;63800;51.972;5.682;2023-02-03T02:47:40;8.44;91.33
75217;HTU21D;63800;51.972;5.682;2023-02-03T02:50:13;8.49;90.97
75217;HTU21D;63800;51.972;5.682;2023-02-03T02:52:42;8.43;91.11
75217;HTU21D;63800;51.972;5.682;2023-02-03T02:55:19;8.49;90.88
75217;HTU21D;63800;51.972;5.682;2023-02-03T02:57:50;8.47;90.82
75217;HTU21D;63800;51.972;5.682;2023-02-03T03:00:17;8.52;90.85
75217;HTU21D;63800;51.972;5.682;2023-02-03T03:02:43;8.47;90.95
75217;HTU21D;63800;51.972;5.682;2023-02-03T03:05:10;8.45;91.25
75217;HTU21D;63800;51.972;5.682;2023-02-03T03:07:43;8.39;91.39
75217;HTU21D;63800;51.972;5.682;2023-02-03T03:10:12;8.45;91.40
75217;HTU21D;63800;51.972;5.682;2023-02-03T03:12:48;8.46;90.96
75217;HTU21D;63800;51.972;5.682;2023-02-03T03:15:19;8.51;91.18
75217;HTU21D;63800;51.972;5.682;2023-02-03T03:18:12;8.45;91.51
75217;HTU21D;63800;51.972;5.682;2023-02-03T03:20:41;8.46;91.45
75217;HTU21D;63800;51.972;5.682;2023-02-03T03:23:19;8.49;91.30
75217;HTU21D;63800;51.972;5.682;2023-02-03T03:25:50;8.46;91.68
75217;HTU21D;63800;51.972;5.682;2023-02-03T03:28:32;8.46;91.36
75217;HTU21D;63800;51.972;5.682;2023-02-03T03:31:00;8.50;91.05
75217;HTU21D;63800;51.972;5.682;2023-02-03T03:33:26;8.57;90.88
75217;HTU21D;63800;51.972;5.682;2023-02-03T03:36:07;8.50;90.86
75217;HTU21D;63800;51.972;5.682;2023-02-03T03:38:45;8.49;91.21
75217;HTU21D;63800;51.972;5.682;2023-02-03T03:41:26;8.56;90.76
75217;HTU21D;63800;51.972;5.682;2023-02-03T03:43:56;8.56;90.98
75217;HTU21D;63800;51.972;5.682;2023-02-03T03:46:30;8.56;91.04
75217;HTU21D;63800;51.972;5.682;2023-02-03T03:49:01;8.52;91.07
75217;HTU21D;63800;51.972;5.682;2023-02-03T03:51:33;8.60;90.97
75217;HTU21D;63800;51.972;5.682;2023-02-03T03:54:04;8.53;91.04
75217;HTU21D;63800;51.972;5.682;2023-02-03T03:56:37;8.57;90.95
75217;HTU21D;63800;51.972;5.682;2023-02-03T03:59:04;8.59;90.92
75217;HTU21D;63800;51.972;5.682;2023-02-03T04:01:33;8.58;90.74
75217;HTU21D;63800;51.972;5.682;2023-02-03T04:04:02;8.60;90.89
75217;HTU21D;63800;51.972;5.682;2023-02-03T04:06:30;8.56;90.96
75217;HTU21D;63800;51.972;5.682;2023-02-03T04:08:55;8.58;91.28
75217;HTU21D;63800;51.972;5.682;2023-02-03T04:11:21;8.58;91.23
75217;HTU21D;63800;51.972;5.682;2023-02-03T04:14:05;8.62;91.12
75217;HTU21D;63800;51.972;5.682;2023-02-03T04:16:31;8.60;90.88
75217;HTU21D;63800;51.972;5.682;2023-02-03T04:18:56;8.50;91.22
75217;HTU21D;63800;51.972;5.682;2023-02-03T04:21:21;8.55;91.22
75217;HTU21D;63800;51.972;5.682;2023-02-03T04:23:47;8.58;91.18
75217;HTU21D;63800;51.972;5.682;2023-02-03T04:26:12;8.56;91.21
75217;HTU21D;63800;51.972;5.682;2023-02-03T04:28:38;8.58;90.95
75217;HTU21D;63800;51.972;5.682;2023-02-03T04:31:03;8.61;91.24
75217;HTU21D;63800;51.972;5.682;2023-02-03T04:33:29;8.65;90.88
75217;HTU21D;63800;51.972;5.682;2023-02-03T04:35:55;8.59;90.92
75217;HTU21D;63800;51.972;5.682;2023-02-03T04:38:21;8.61;90.76
75217;HTU21D;63800;51.972;5.682;2023-02-03T04:40:46;8.53;91.02
75217;HTU21D;63800;51.972;5.682;2023-02-03T04:43:12;8.58;90.88
75217;HTU21D;63800;51.972;5.682;2023-02-03T04:45:39;8.61;90.53
75217;HTU21D;63800;51.972;5.682;2023-02-03T04:48:04;8.61;90.68
75217;HTU21D;63800;51.972;5.682;2023-02-03T04:50:31;8.66;90.59
75217;HTU21D;63800;51.972;5.682;2023-02-03T04:52:56;8.64;90.44
75217;HTU21D;63800;51.972;5.682;2023-02-03T04:55:26;8.59;90.86
75217;HTU21D;63800;51.972;5.682;2023-02-03T04:57:56;8.61;90.76
75217;HTU21D;63800;51.972;5.682;2023-02-03T05:00:21;8.62;90.60
75217;HTU21D;63800;51.972;5.682;2023-02-03T05:02:47;8.66;90.33
75217;HTU21D;63800;51.972;5.682;2023-02-03T05:05:12;8.67;90.47
75217;HTU21D;63800;51.972;5.682;2023-02-03T05:07:38;8.64;90.84
75217;HTU21D;63800;51.972;5.682;2023-02-03T05:10:03;8.64;90.66
75217;HTU21D;63800;51.972;5.682;2023-02-03T05:12:29;8.61;91.16
75217;HTU21D;63800;51.972;5.682;2023-02-03T05:14:55;8.64;90.81
75217;HTU21D;63800;51.972;5.682;2023-02-03T05:17:20;8.59;90.79
75217;HTU21D;63800;51.972;5.682;2023-02-03T05:19:45;8.56;91.43
75217;HTU21D;63800;51.972;5.682;2023-02-03T05:22:11;8.59;91.31
75217;HTU21D;63800;51.972;5.682;2023-02-03T05:24:36;8.57;91.14
75217;HTU21D;63800;51.972;5.682;2023-02-03T05:27:02;8.55;91.15
75217;HTU21D;63800;51.972;5.682;2023-02-03T05:29:27;8.61;90.92
75217;HTU21D;63800;51.972;5.682;2023-02-03T05:31:53;8.64;91.00
75217;HTU21D;63800;51.972;5.682;2023-02-03T05:34:18;8.65;91.01
75217;HTU21D;63800;51.972;5.682;2023-02-03T05:36:44;8.60;91.11
75217;HTU21D;63800;51.972;5.682;2023-02-03T05:39:09;8.58;91.46
75217;HTU21D;63800;51.972;5.682;2023-02-03T05:41:34;8.55;91.59
75217;HTU21D;63800;51.972;5.682;2023-02-03T05:44:23;8.52;91.39
75217;HTU21D;63800;51.972;5.682;2023-02-03T05:46:50;8.56;91.33
75217;HTU21D;63800;51.972;5.682;2023-02-03T05:49:16;8.60;91.39
75217;HTU21D;63800;51.972;5.682;2023-02-03T05:51:41;8.45;91.79
75217;HTU21D;63800;51.972;5.682;2023-02-03T05:54:08;8.55;91.41
75217;HTU21D;63800;51.972;5.682;2023-02-03T05:56:34;8.55;91.36
75217;HTU21D;63800;51.972;5.682;2023-02-03T05:58:59;8.52;91.49
75217;HTU21D;63800;51.972;5.682;2023-02-03T06:01:25;8.48;91.86
75217;HTU21D;63800;51.972;5.682;2023-02-03T06:03:50;8.47;91.88
75217;HTU21D;63800;51.972;5.682;2023-02-03T06:06:16;8.56;91.49
75217;HTU21D;63800;51.972;5.682;2023-02-03T06:08:42;8.51;91.98
75217;HTU21D;63800;51.972;5.682;2023-02-03T06:11:08;8.51;91.40
75217;HTU21D;63800;51.972;5.682;2023-02-03T06:13:33;8.55;91.58
75217;HTU21D;63800;51.972;5.682;2023-02-03T06:15:59;8.46;91.98
75217;HTU21D;63800;51.972;5.682;2023-02-03T06:18:24;8.52;91.70
75217;HTU21D;63800;51.972;5.682;2023-02-03T06:20:50;8.51;91.60
75217;HTU21D;63800;51.972;5.682;2023-02-03T06:23:16;8.55;91.56
75217;HTU21D;63800;51.972;5.682;2023-02-03T06:25:43;8.46;92.18
75217;HTU21D;63800;51.972;5.682;2023-02-03T06:28:09;8.51;91.63
75217;HTU21D;63800;51.972;5.682;2023-02-03T06:30:34;8.44;92.11
75217;HTU21D;63800;51.972;5.682;2023-02-03T06:33:00;8.49;91.92
75217;HTU21D;63800;51.972;5.682;2023-02-03T06:35:25;8.47;91.94
75217;HTU21D;63800;51.972;5.682;2023-02-03T06:37:51;8.35;92.63
75217;HTU21D;63800;51.972;5.682;2023-02-03T06:40:17;8.36;93.00
75217;HTU21D;63800;51.972;5.682;2023-02-03T06:42:47;8.33;92.95
75217;HTU21D;63800;51.972;5.682;2023-02-03T06:45:13;8.43;92.41
75217;HTU21D;63800;51.972;5.682;2023-02-03T06:47:42;8.36;92.50
75217;HTU21D;63800;51.972;5.682;2023-02-03T06:50:11;8.43;92.40
75217;HTU21D;63800;51.972;5.682;2023-02-03T06:52:36;8.43;92.49
75217;HTU21D;63800;51.972;5.682;2023-02-03T06:55:03;8.51;92.20
75217;HTU21D;63800;51.972;5.682;2023-02-03T06:57:29;8.47;92.53
75217;HTU21D;63800;51.972;5.682;2023-02-03T06:59:54;8.34;92.99
75217;HTU21D;63800;51.972;5.682;2023-02-03T07:02:20;8.34;93.03
75217;HTU21D;63800;51.972;5.682;2023-02-03T07:04:46;8.43;92.63
75217;HTU21D;63800;51.972;5.682;2023-02-03T07:07:11;8.41;92.79
75217;HTU21D;63800;51.972;5.682;2023-02-03T07:09:38;8.43;92.66
75217;HTU21D;63800;51.972;5.682;2023-02-03T07:12:05;8.27;93.27
75217;HTU21D;63800;51.972;5.682;2023-02-03T07:14:30;8.42;92.77
75217;HTU21D;63800;51.972;5.682;2023-02-03T07:16:56;8.43;92.79
75217;HTU21D;63800;51.972;5.682;2023-02-03T07:19:21;8.48;92.64
75217;HTU21D;63800;51.972;5.682;2023-02-03T07:21:47;8.45;92.89
75217;HTU21D;63800;51.972;5.682;2023-02-03T07:24:13;8.36;93.11
75217;HTU21D;63800;51.972;5.682;2023-02-03T07:26:38;8.41;92.95
75217;HTU21D;63800;51.972;5.682;2023-02-03T07:29:04;8.44;92.79
75217;HTU21D;63800;51.972;5.682;2023-02-03T07:31:29;8.37;93.21
75217;HTU21D;63800;51.972;5.682;2023-02-03T07:33:55;8.44;92.72
75217;HTU21D;63800;51.972;5.682;2023-02-03T07:36:20;8.49;92.72
75217;HTU21D;63800;51.972;5.682;2023-02-03T07:38:46;8.45;93.14
75217;HTU21D;63800;51.972;5.682;2023-02-03T07:41:11;8.47;92.68
75217;HTU21D;63800;51.972;5.682;2023-02-03T07:43:37;8.48;92.75
75217;HTU21D;63800;51.972;5.682;2023-02-03T07:46:02;8.47;92.67
75217;HTU21D;63800;51.972;5.682;2023-02-03T07:48:28;8.46;93.00
75217;HTU21D;63800;51.972;5.682;2023-02-03T07:50:53;8.44;93.05
75217;HTU21D;63800;51.972;5.682;2023-02-03T07:53:19;8.47;92.90
75217;HTU21D;63800;51.972;5.682;2023-02-03T07:55:44;8.52;92.73
75217;HTU21D;63800;51.972;5.682;2023-02-03T07:58:10;8.49;92.93
75217;HTU21D;63800;51.972;5.682;2023-02-03T08:00:35;8.47;92.99
75217;HTU21D;63800;51.972;5.682;2023-02-03T08:03:01;8.53;92.75
75217;HTU21D;63800;51.972;5.682;2023-02-03T08:05:27;8.45;92.99
75217;HTU21D;63800;51.972;5.682;2023-02-03T08:07:54;8.46;92.87
75217;HTU21D;63800;51.972;5.682;2023-02-03T08:10:20;8.53;92.50
75217;HTU21D;63800;51.972;5.682;2023-02-03T08:12:45;8.60;92.37
75217;HTU21D;63800;51.972;5.682;2023-02-03T08:15:12;8.68;91.93
75217;HTU21D;63800;51.972;5.682;2023-02-03T08:17:41;8.65;92.11
75217;HTU21D;63800;51.972;5.682;2023-02-03T08:20:09;8.67;92.07
75217;HTU21D;63800;51.972;5.682;2023-02-03T08:22:34;8.68;91.72
75217;HTU21D;63800;51.972;5.682;2023-02-03T08:25:00;8.78;91.15
75217;HTU21D;63800;51.972;5.682;2023-02-03T08:27:25;8.80;91.22
75217;HTU21D;63800;51.972;5.682;2023-02-03T08:29:51;8.83;91.10
75217;HTU21D;63800;51.972;5.682;2023-02-03T08:32:21;8.85;91.18
75217;HTU21D;63800;51.972;5.682;2023-02-03T08:34:47;8.83;91.38
75217;HTU21D;63800;51.972;5.682;2023-02-03T08:37:15;8.86;91.14
75217;HTU21D;63800;51.972;5.682;2023-02-03T08:39:41;8.89;91.07
75217;HTU21D;63800;51.972;5.682;2023-02-03T08:42:07;8.94;90.60
75217;HTU21D;63800;51.972;5.682;2023-02-03T08:44:34;8.96;90.50
75217;HTU21D;63800;51.972;5.682;2023-02-03T08:47:00;8.94;90.57
75217;HTU21D;63800;51.972;5.682;2023-02-03T08:49:27;8.97;90.44
75217;HTU21D;63800;51.972;5.682;2023-02-03T08:51:54;9.04;90.35
75217;HTU21D;63800;51.972;5.682;2023-02-03T08:54:20;9.04;90.25
75217;HTU21D;63800;51.972;5.682;2023-02-03T08:56:46;9.01;90.61
75217;HTU21D;63800;51.972;5.682;2023-02-03T08:59:12;9.07;90.24
75217;HTU21D;63800;51.972;5.682;2023-02-03T09:01:38;9.10;90.28
75217;HTU21D;63800;51.972;5.682;2023-02-03T09:04:11;9.01;90.44
75217;HTU21D;63800;51.972;5.682;2023-02-03T09:06:36;9.00;90.76
75217;HTU21D;63800;51.972;5.682;2023-02-03T09:09:03;9.03;90.76
75217;HTU21D;63800;51.972;5.682;2023-02-03T09:11:28;9.08;90.79
75217;HTU21D;63800;51.972;5.682;2023-02-03T09:13:54;9.10;90.70
75217;HTU21D;63800;51.972;5.682;2023-02-03T09:16:21;9.10;90.27
75217;HTU21D;63800;51.972;5.682;2023-02-03T09:18:47;9.08;90.58
75217;HTU21D;63800;51.972;5.682;2023-02-03T09:21:14;9.17;90.28
75217;HTU21D;63800;51.972;5.682;2023-02-03T09:23:41;9.16;90.30
75217;HTU21D;63800;51.972;5.682;2023-02-03T09:26:09;9.20;90.47
75217;HTU21D;63800;51.972;5.682;2023-02-03T09:28:35;9.20;90.07
75217;HTU21D;63800;51.972;5.682;2023-02-03T09:31:09;9.25;89.87
75217;HTU21D;63800;51.972;5.682;2023-02-03T09:33:35;9.30;89.88
75217;HTU21D;63800;51.972;5.682;2023-02-03T09:36:01;9.29;89.86
75217;HTU21D;63800;51.972;5.682;2023-02-03T09:38:27;9.38;89.54
75217;HTU21D;63800;51.972;5.682;2023-02-03T09:41:02;9.34;89.91
75217;HTU21D;63800;51.972;5.682;2023-02-03T09:43:42;9.34;89.50
75217;HTU21D;63800;51.972;5.682;2023-02-03T09:46:31;9.39;89.70
75217;HTU21D;63800;51.972;5.682;2023-02-03T09:48:59;9.33;89.95
75217;HTU21D;63800;51.972;5.682;2023-02-03T09:51:42;9.42;89.54
75217;HTU21D;63800;51.972;5.682;2023-02-03T09:54:12;9.40;89.50
75217;HTU21D;63800;51.972;5.682;2023-02-03T09:56:39;9.42;89.43
75217;HTU21D;63800;51.972;5.682;2023-02-03T09:59:08;9.46;89.50
75217;HTU21D;63800;51.972;5.682;2023-02-03T10:02:00;9.48;89.50
75217;HTU21D;63800;51.972;5.682;2023-02-03T10:04:37;9.42;89.63
75217;HTU21D;63800;51.972;5.682;2023-02-03T10:07:18;9.40;89.46
75217;HTU21D;63800;51.972;5.682;2023-02-03T10:10:16;9.42;89.48
75217;HTU21D;63800;51.972;5.682;2023-02-03T10:18:03;9.47;89.74
75217;HTU21D;63800;51.972;5.682;2023-02-03T10:23:08;9.40;89.15
75217;HTU21D;63800;51.972;5.682;2023-02-03T10:25:40;9.46;89.13
75217;HTU21D;63800;51.972;5.682;2023-02-03T10:28:18;9.52;89.04
75217;HTU21D;63800;51.972;5.682;2023-02-03T10:30:59;9.44;89.60
75217;HTU21D;63800;51.972;5.682;2023-02-03T10:33:30;9.48;89.54
75217;HTU21D;63800;51.972;5.682;2023-02-03T10:36:14;9.56;89.28
75217;HTU21D;63800;51.972;5.682;2023-02-03T10:38:51;9.45;89.57
75217;HTU21D;63800;51.972;5.682;2023-02-03T10:41:21;9.52;89.15
75217;HTU21D;63800;51.972;5.682;2023-02-03T10:43:49;9.53;88.93
75217;HTU21D;63800;51.972;5.682;2023-02-03T10:46:29;9.57;89.02
75217;HTU21D;63800;51.972;5.682;2023-02-03T10:48:55;9.59;88.60
75217;HTU21D;63800;51.972;5.682;2023-02-03T10:51:22;9.64;88.35
75217;HTU21D;63800;51.972;5.682;2023-02-03T10:53:48;9.66;88.47
75217;HTU21D;63800;51.972;5.682;2023-02-03T10:56:20;9.69;88.22
75217;HTU21D;63800;51.972;5.682;2023-02-03T10:58:50;9.72;87.97
75217;HTU21D;63800;51.972;5.682;2023-02-03T11:01:19;9.77;87.93
75217;HTU21D;63800;51.972;5.682;2023-02-03T11:04:01;9.78;88.02
75217;HTU21D;63800;51.972;5.682;2023-02-03T11:06:28;9.72;87.92
75217;HTU21D;63800;51.972;5.682;2023-02-03T11:08:54;9.81;87.44
75217;HTU21D;63800;51.972;5.682;2023-02-03T11:11:30;9.83;87.41
75217;HTU21D;63800;51.972;5.682;2023-02-03T11:16:33;9.93;86.88
75217;HTU21D;63800;51.972;5.682;2023-02-03T11:19:04;9.92;86.86
75217;HTU21D;63800;51.972;5.682;2023-02-03T11:21:46;9.98;87.18
75217;HTU21D;63800;51.972;5.682;2023-02-03T11:24:31;9.97;86.74
75217;HTU21D;63800;51.972;5.682;2023-02-03T11:27:04;9.91;87.46
75217;HTU21D;63800;51.972;5.682;2023-02-03T11:29:46;9.98;86.51
75217;HTU21D;63800;51.972;5.682;2023-02-03T11:32:34;10.00;86.66
75217;HTU21D;63800;51.972;5.682;2023-02-03T11:37:50;10.06;86.04
75217;HTU21D;63800;51.972;5.682;2023-02-03T11:42:58;10.09;85.98
75217;HTU21D;63800;51.972;5.682;2023-02-03T11:45:28;10.16;86.07
75217;HTU21D;63800;51.972;5.682;2023-02-03T11:48:24;10.13;85.78
75217;HTU21D;63800;51.972;5.682;2023-02-03T11:56:30;10.18;85.61
75217;HTU21D;63800;51.972;5.682;2023-02-03T11:59:22;10.21;85.39
75217;HTU21D;63800;51.972;5.682;2023-02-03T12:11:18;10.23;85.49
75217;HTU21D;63800;51.972;5.682;2023-02-03T12:17:10;10.21;86.16
75217;HTU21D;63800;51.972;5.682;2023-02-03T12:28:20;10.20;85.28
75217;HTU21D;63800;51.972;5.682;2023-02-03T12:30:54;10.25;85.80
75217;HTU21D;63800;51.972;5.682;2023-02-03T12:33:29;10.23;86.07
75217;HTU21D;63800;51.972;5.682;2023-02-03T12:36:07;10.23;85.73
75217;HTU21D;63800;51.972;5.682;2023-02-03T12:38:59;10.18;86.00
75217;HTU21D;63800;51.972;5.682;2023-02-03T12:41:33;10.15;85.94
75217;HTU21D;63800;51.972;5.682;2023-02-03T12:47:02;10.05;88.15
75217;HTU21D;63800;51.972;5.682;2023-02-03T12:49:33;9.90;90.18
75217;HTU21D;63800;51.972;5.682;2023-02-03T12:55:07;9.83;90.46
75217;HTU21D;63800;51.972;5.682;2023-02-03T12:57:44;9.80;90.86
75217;HTU21D;63800;51.972;5.682;2023-02-03T13:03:57;9.65;92.08
75217;HTU21D;63800;51.972;5.682;2023-02-03T13:06:22;9.67;92.46
75217;HTU21D;63800;51.972;5.682;2023-02-03T13:08:55;9.66;92.62
75217;HTU21D;63800;51.972;5.682;2023-02-03T13:11:30;9.56;93.68
75217;HTU21D;63800;51.972;5.682;2023-02-03T13:14:04;9.50;95.55
75217;HTU21D;63800;51.972;5.682;2023-02-03T13:16:38;9.45;96.46
75217;HTU21D;63800;51.972;5.682;2023-02-03T13:19:12;9.36;97.20
75217;HTU21D;63800;51.972;5.682;2023-02-03T13:21:39;9.33;97.16
75217;HTU21D;63800;51.972;5.682;2023-02-03T13:24:06;9.38;97.46
75217;HTU21D;63800;51.972;5.682;2023-02-03T13:26:54;9.29;96.93
75217;HTU21D;63800;51.972;5.682;2023-02-03T13:29:51;9.23;96.99
75217;HTU21D;63800;51.972;5.682;2023-02-03T13:32:28;9.27;96.83
75217;HTU21D;63800;51.972;5.682;2023-02-03T13:37:47;9.32;94.94
75217;HTU21D;63800;51.972;5.682;2023-02-03T13:43:10;9.40;95.30
75217;HTU21D;63800;51.972;5.682;2023-02-03T13:45:48;9.41;94.69
75217;HTU21D;63800;51.972;5.682;2023-02-03T13:48:20;9.33;95.01
75217;HTU21D;63800;51.972;5.682;2023-02-03T13:50:49;9.45;94.03
75217;HTU21D;63800;51.972;5.682;2023-02-03T13:53:23;9.40;94.44
75217;HTU21D;63800;51.972;5.682;2023-02-03T13:55:58;9.44;93.66
75217;HTU21D;63800;51.972;5.682;2023-02-03T13:58:27;9.49;92.74
75217;HTU21D;63800;51.972;5.682;2023-02-03T14:05:50;9.49;91.98
75217;HTU21D;63800;51.972;5.682;2023-02-03T14:16:41;9.36;91.27
75217;HTU21D;63800;51.972;5.682;2023-02-03T14:19:56;9.30;91.73
75217;HTU21D;63800;51.972;5.682;2023-02-03T14:21:59;9.32;91.85
75217;HTU21D;63800;51.972;5.682;2023-02-03T14:27:01;9.38;90.88
75217;HTU21D;63800;51.972;5.682;2023-02-03T14:29:33;9.35;91.34
75217;HTU21D;63800;51.972;5.682;2023-02-03T14:32:06;9.40;90.54
75217;HTU21D;63800;51.972;5.682;2023-02-03T14:34:47;9.40;89.41
75217;HTU21D;63800;51.972;5.682;2023-02-03T14:37:27;9.42;90.12
75217;HTU21D;63800;51.972;5.682;2023-02-03T14:40:23;9.35;88.92
75217;HTU21D;63800;51.972;5.682;2023-02-03T14:48:51;9.48;88.84
75217;HTU21D;63800;51.972;5.682;2023-02-03T14:54:24;9.46;88.71
75217;HTU21D;63800;51.972;5.682;2023-02-03T15:00:02;9.42;88.00
75217;HTU21D;63800;51.972;5.682;2023-02-03T15:02:30;9.31;88.44
75217;HTU21D;63800;51.972;5.682;2023-02-03T15:07:45;9.32;88.86
75217;HTU21D;63800;51.972;5.682;2023-02-03T15:10:42;9.26;89.31
75217;HTU21D;63800;51.972;5.682;2023-02-03T15:13:25;9.31;88.39
75217;HTU21D;63800;51.972;5.682;2023-02-03T15:15:54;9.31;88.34
75217;HTU21D;63800;51.972;5.682;2023-02-03T15:18:27;9.18;88.13
75217;HTU21D;63800;51.972;5.682;2023-02-03T15:20:53;9.14;88.36
75217;HTU21D;63800;51.972;5.682;2023-02-03T15:23:25;9.17;88.30
75217;HTU21D;63800;51.972;5.682;2023-02-03T15:25:59;9.19;87.37
75217;HTU21D;63800;51.972;5.682;2023-02-03T15:28:26;9.21;87.65
75217;HTU21D;63800;51.972;5.682;2023-02-03T15:31:06;9.25;87.19
75217;HTU21D;63800;51.972;5.682;2023-02-03T15:33:36;9.19;87.59
75217;HTU21D;63800;51.972;5.682;2023-02-03T15:36:07;9.14;87.83
75217;HTU21D;63800;51.972;5.682;2023-02-03T15:38:41;9.16;87.19
75217;HTU21D;63800;51.972;5.682;2023-02-03T15:41:10;9.19;86.72
75217;HTU21D;63800;51.972;5.682;2023-02-03T15:43:41;9.14;86.97
75217;HTU21D;63800;51.972;5.682;2023-02-03T15:46:15;9.07;87.20
75217;HTU21D;63800;51.972;5.682;2023-02-03T15:48:51;9.02;86.99
75217;HTU21D;63800;51.972;5.682;2023-02-03T15:51:22;8.96;86.61
75217;HTU21D;63800;51.972;5.682;2023-02-03T15:54:16;9.00;86.99
75217;HTU21D;63800;51.972;5.682;2023-02-03T15:56:44;9.02;86.07
75217;HTU21D;63800;51.972;5.682;2023-02-03T15:59:37;9.10;85.54
75217;HTU21D;63800;51.972;5.682;2023-02-03T16:02:55;9.08;85.67
75217;HTU21D;63800;51.972;5.682;2023-02-03T16:05:18;8.92;85.73
75217;HTU21D;63800;51.972;5.682;2023-02-03T16:07:45;9.00;85.39
75217;HTU21D;63800;51.972;5.682;2023-02-03T16:10:43;8.89;85.75
75217;HTU21D;63800;51.972;5.682;2023-02-03T16:18:31;8.77;85.42
75217;HTU21D;63800;51.972;5.682;2023-02-03T16:21:00;8.90;85.00
75217;HTU21D;63800;51.972;5.682;2023-02-03T16:23:25;8.82;84.60
75217;HTU21D;63800;51.972;5.682;2023-02-03T16:26:15;8.80;84.67
75217;HTU21D;63800;51.972;5.682;2023-02-03T16:28:42;8.79;84.84
75217;HTU21D;63800;51.972;5.682;2023-02-03T16:31:26;8.78;83.95
75217;HTU21D;63800;51.972;5.682;2023-02-03T16:34:18;8.82;83.59
75217;HTU21D;63800;51.972;5.682;2023-02-03T16:37:11;8.77;83.66
75217;HTU21D;63800;51.972;5.682;2023-02-03T16:39:55;8.75;83.92
75217;HTU21D;63800;51.972;5.682;2023-02-03T16:42:42;8.74;83.82
75217;HTU21D;63800;51.972;5.682;2023-02-03T16:45:27;8.76;84.06
75217;HTU21D;63800;51.972;5.682;2023-02-03T16:48:11;8.79;82.99
75217;HTU21D;63800;51.972;5.682;2023-02-03T16:50:56;8.73;84.17
75217;HTU21D;63800;51.972;5.682;2023-02-03T16:53:25;8.72;83.56
75217;HTU21D;63800;51.972;5.682;2023-02-03T16:55:52;8.65;83.71
75217;HTU21D;63800;51.972;5.682;2023-02-03T16:58:21;8.71;83.45
75217;HTU21D;63800;51.972;5.682;2023-02-03T17:00:48;8.65;83.51
75217;HTU21D;63800;51.972;5.682;2023-02-03T17:03:19;8.61;83.71
75217;HTU21D;63800;51.972;5.682;2023-02-03T17:05:46;8.60;83.58
75217;HTU21D;63800;51.972;5.682;2023-02-03T17:08:12;8.57;83.81
75217;HTU21D;63800;51.972;5.682;2023-02-03T17:10:40;8.55;84.42
75217;HTU21D;63800;51.972;5.682;2023-02-03T17:13:07;8.55;83.84
75217;HTU21D;63800;51.972;5.682;2023-02-03T17:15:39;8.57;83.78
75217;HTU21D;63800;51.972;5.682;2023-02-03T17:18:05;8.55;83.70
75217;HTU21D;63800;51.972;5.682;2023-02-03T17:20:30;8.53;83.62
75217;HTU21D;63800;51.972;5.682;2023-02-03T17:22:56;8.56;83.94
75217;HTU21D;63800;51.972;5.682;2023-02-03T17:25:21;8.51;83.97
75217;HTU21D;63800;51.972;5.682;2023-02-03T17:27:47;8.46;84.09
75217;HTU21D;63800;51.972;5.682;2023-02-03T17:30:13;8.49;83.95
75217;HTU21D;63800;51.972;5.682;2023-02-03T17:32:42;8.47;84.35
75217;HTU21D;63800;51.972;5.682;2023-02-03T17:35:07;8.37;84.54
75217;HTU21D;63800;51.972;5.682;2023-02-03T17:37:33;8.35;85.05
75217;HTU21D;63800;51.972;5.682;2023-02-03T17:39:59;8.35;84.86
75217;HTU21D;63800;51.972;5.682;2023-02-03T17:42:24;8.41;84.87
75217;HTU21D;63800;51.972;5.682;2023-02-03T17:44:50;8.34;84.82
75217;HTU21D;63800;51.972;5.682;2023-02-03T17:47:15;8.41;84.42
75217;HTU21D;63800;51.972;5.682;2023-02-03T17:49:41;8.38;84.89